KWDG/WDG METAR and TAF weather

Enter ICAO airport designator
Station Type Date Time Source
KWDG METAR 2022/11/30 11:35 UTC NOAA

KWDG 301135Z AUTO 01004KT 10SM CLR M05/M07 A3035 RMK AO2


Station Type Date Time Source
KWDG Decoded METAR 2022/11/30 11:35 UTC NOAA

Enid, Enid Woodring Regional Airport, OK, United States (KWDG) 36-22-45N 097-47-28W
Nov 30, 2022 - 06:35 AM EST / 2022.11.30 1135 UTC
Wind: from the N (010 degrees) at 5 MPH (4 KT):0
Visibility: 10 mile(s):0
Sky conditions: clear
Temperature: 23 F (-5 C)
Windchill: 15 F (-9 C):1
Dew Point: 19 F (-7 C)
Relative Humidity: 85%
Pressure (altimeter): 30.35 in. Hg (1027 hPa)
ob: KWDG 301135Z AUTO 01004KT 10SM CLR M05/M07 A3035 RMK AO2
cycle: 11

Station Type Date Time Source
KWDG TAF UTC NOAA

Error!

Example: see airport list